createdAt,value
2018-05-13T00:00:34.936Z,12.43
2018-05-13T00:03:03.419Z,13.10
2018-05-13T00:05:31.094Z,12.43
2018-05-13T00:07:59.558Z,13.80
2018-05-13T00:10:27.227Z,12.40
2018-05-13T00:12:56.264Z,13.50
2018-05-13T00:15:23.996Z,12.63
2018-05-13T00:17:52.440Z,14.47
2018-05-13T00:20:20.152Z,11.60
2018-05-13T00:22:47.810Z,13.40
2018-05-13T00:25:15.524Z,12.27
2018-05-13T00:27:43.191Z,12.30
2018-05-13T00:30:10.913Z,12.70
2018-05-13T00:32:38.573Z,12.40
2018-05-13T00:35:06.263Z,12.90
2018-05-13T00:37:33.925Z,12.50
2018-05-13T00:40:01.623Z,11.93
2018-05-13T00:42:30.051Z,13.07
2018-05-13T00:44:57.747Z,13.17
2018-05-13T00:47:26.224Z,14.30
2018-05-13T00:49:53.999Z,13.37
2018-05-13T00:52:21.696Z,14.10
2018-05-13T00:54:55.224Z,13.27
2018-05-13T00:57:22.936Z,13.37
2018-05-13T00:59:51.411Z,13.33
2018-05-13T01:02:19.851Z,12.23
2018-05-13T01:04:47.552Z,13.07
2018-05-13T01:07:15.259Z,14.60
2018-05-13T01:09:42.927Z,14.17
2018-05-13T01:12:10.629Z,13.27
2018-05-13T01:14:38.303Z,13.53
2018-05-13T01:17:06.770Z,14.17
2018-05-13T01:19:34.447Z,13.17
2018-05-13T01:22:02.933Z,13.30
2018-05-13T01:24:31.373Z,12.37
2018-05-13T01:26:59.089Z,13.73
2018-05-13T01:29:27.515Z,14.40
2018-05-13T01:31:55.211Z,14.47
2018-05-13T01:34:22.875Z,14.30
2018-05-13T01:36:51.304Z,12.03
2018-05-13T01:39:19.017Z,13.87
2018-05-13T01:41:47.462Z,14.13
2018-05-13T01:44:15.162Z,13.57
2018-05-13T01:46:43.599Z,14.33
2018-05-13T01:49:11.323Z,14.90
2018-05-13T01:51:39.011Z,14.93
2018-05-13T01:54:06.717Z,16.00
2018-05-13T01:56:34.387Z,15.43
2018-05-13T01:59:02.860Z,15.10
2018-05-13T02:01:30.532Z,16.37
2018-05-13T02:03:59.012Z,15.37
2018-05-13T02:06:27.451Z,16.30
2018-05-13T02:08:55.165Z,16.77
2018-05-13T02:11:23.595Z,14.83
2018-05-13T02:13:51.267Z,14.93
2018-05-13T02:16:18.969Z,15.03
2018-05-13T02:18:47.444Z,15.70
2018-05-13T02:21:15.883Z,16.40
2018-05-13T02:23:43.583Z,15.37
2018-05-13T02:26:12.056Z,17.00
2018-05-13T02:28:40.491Z,16.27
2018-05-13T02:31:08.199Z,15.87
2018-05-13T02:33:35.867Z,15.33
2018-05-13T02:36:04.347Z,16.13
2018-05-13T02:38:32.777Z,16.17
2018-05-13T02:41:00.496Z,17.93
2018-05-13T02:43:28.928Z,17.93
2018-05-13T02:45:56.646Z,16.43
2018-05-13T02:48:25.072Z,17.00
2018-05-13T02:50:52.733Z,17.27
2018-05-13T02:53:20.434Z,16.53
2018-05-13T02:55:48.107Z,17.17
2018-05-13T02:58:16.576Z,15.67
2018-05-13T03:00:45.022Z,14.43
2018-05-13T03:03:12.736Z,17.83
2018-05-13T03:05:41.160Z,16.30
2018-05-13T03:08:08.822Z,15.67
2018-05-13T03:10:36.527Z,17.03
2018-05-13T03:13:04.951Z,17.90
2018-05-13T03:15:32.674Z,19.37
2018-05-13T03:18:01.106Z,18.60
2018-05-13T03:20:28.803Z,18.83
2018-05-13T03:22:56.472Z,19.03
2018-05-13T03:25:25.976Z,17.33
2018-05-13T03:27:55.527Z,18.97
2018-05-13T03:30:23.244Z,18.93
2018-05-13T03:32:51.686Z,19.13
2018-05-13T03:35:19.388Z,20.07
2018-05-13T03:37:47.833Z,18.70
2018-05-13T03:40:15.536Z,18.57
2018-05-13T03:42:43.191Z,21.33
2018-05-13T03:45:11.675Z,20.67
2018-05-13T03:47:40.098Z,18.93
2018-05-13T03:50:07.785Z,20.60
2018-05-13T03:52:35.478Z,19.83
2018-05-13T03:55:03.959Z,19.87
2018-05-13T03:57:32.387Z,20.03
2018-05-13T04:00:00.100Z,21.07
2018-05-13T04:02:28.539Z,19.57
2018-05-13T04:04:56.246Z,20.23
2018-05-13T04:07:25.481Z,22.57
2018-05-13T04:10:06.057Z,22.50
2018-05-13T04:12:45.615Z,22.97
2018-05-13T04:15:21.306Z,21.57
2018-05-13T04:17:49.745Z,20.27
2018-05-13T04:20:17.450Z,22.67
2018-05-13T04:22:45.927Z,23.80
2018-05-13T04:25:14.353Z,22.90
2018-05-13T04:27:42.061Z,22.90
2018-05-13T04:30:10.495Z,23.20
2018-05-13T04:32:38.207Z,23.73
2018-05-13T04:35:06.642Z,21.17
2018-05-13T04:37:34.342Z,22.40
2018-05-13T04:40:02.780Z,21.90
2018-05-13T04:42:30.487Z,22.53
2018-05-13T04:44:58.143Z,22.37
2018-05-13T04:47:26.827Z,23.47
2018-05-13T04:49:55.486Z,20.60
2018-05-13T04:52:23.141Z,22.77
2018-05-13T04:54:50.854Z,23.23
2018-05-13T04:57:19.282Z,21.83
2018-05-13T04:59:46.982Z,21.77
2018-05-13T05:02:15.419Z,25.00
2018-05-13T05:04:43.128Z,21.77
2018-05-13T05:07:11.559Z,23.03
2018-05-13T05:09:39.277Z,22.40
2018-05-13T05:12:06.986Z,21.23
2018-05-13T05:14:34.676Z,21.73
2018-05-13T05:17:02.383Z,21.27
2018-05-13T05:19:30.090Z,20.17
2018-05-13T05:21:57.749Z,21.80
2018-05-13T05:24:26.177Z,20.90
2018-05-13T05:26:54.853Z,21.63
2018-05-13T05:29:23.288Z,22.43
2018-05-13T05:31:50.991Z,20.73
2018-05-13T05:34:19.435Z,22.30
2018-05-13T05:36:47.141Z,22.60
2018-05-13T05:39:15.572Z,20.87
2018-05-13T05:41:43.277Z,21.30
2018-05-13T05:44:11.702Z,22.93
2018-05-13T05:46:39.403Z,22.53
2018-05-13T05:49:07.067Z,21.60
2018-05-13T05:51:34.777Z,21.67
2018-05-13T05:54:02.500Z,19.50
2018-05-13T05:56:30.171Z,21.13
2018-05-13T05:58:58.910Z,20.77
2018-05-13T06:01:27.403Z,19.87
2018-05-13T06:03:55.139Z,21.93
2018-05-13T06:06:22.857Z,20.47
2018-05-13T06:08:50.556Z,21.23
2018-05-13T06:11:18.270Z,20.40
2018-05-13T06:13:46.019Z,19.87
2018-05-13T06:16:13.688Z,19.87
2018-05-13T06:18:41.395Z,19.33
2018-05-13T06:21:09.076Z,19.23
2018-05-13T06:23:36.803Z,19.00
2018-05-13T06:26:05.297Z,19.00
2018-05-13T06:28:33.828Z,19.60
2018-05-13T06:31:01.997Z,19.37
2018-05-13T06:33:30.477Z,18.60
2018-05-13T06:35:58.131Z,18.00
2018-05-13T06:38:27.444Z,17.17
2018-05-13T06:40:55.191Z,17.93
2018-05-13T06:43:22.868Z,17.37
2018-05-13T06:45:50.580Z,18.03
2018-05-13T06:48:19.028Z,18.07
2018-05-13T06:50:46.743Z,17.77
2018-05-13T06:53:14.441Z,18.23
2018-05-13T06:55:42.161Z,17.53
2018-05-13T06:58:09.901Z,18.07
2018-05-13T07:00:38.342Z,17.53
2018-05-13T07:03:06.050Z,16.40
2018-05-13T07:05:34.487Z,17.60
2018-05-13T07:08:02.165Z,16.40
2018-05-13T07:10:29.961Z,16.27
2018-05-13T07:12:57.579Z,16.03
2018-05-13T07:15:25.241Z,15.47
2018-05-13T07:17:52.965Z,15.60
2018-05-13T07:20:20.636Z,15.33
2018-05-13T07:22:48.360Z,17.37
2018-05-13T07:25:16.824Z,16.37
2018-05-13T07:27:44.532Z,16.17
2018-05-13T07:30:12.236Z,15.57
2018-05-13T07:32:39.999Z,14.63
2018-05-13T07:35:07.707Z,14.60
2018-05-13T07:37:36.201Z,14.60
2018-05-13T07:40:03.887Z,14.33
2018-05-13T07:42:31.591Z,14.43
2018-05-13T07:44:59.246Z,13.80
2018-05-13T07:47:26.967Z,14.50
2018-05-13T07:49:54.755Z,13.77
2018-05-13T07:52:22.428Z,13.77
2018-05-13T07:54:50.084Z,13.57
2018-05-13T07:57:17.797Z,12.83
2018-05-13T07:59:45.472Z,13.13
2018-05-13T08:02:13.187Z,12.43
2018-05-13T08:04:40.875Z,11.57
2018-05-13T08:07:08.581Z,12.43
2018-05-13T08:09:36.247Z,11.13
2018-05-13T08:12:03.960Z,10.83
2018-05-13T08:14:32.399Z,10.80
2018-05-13T08:17:00.103Z,10.60
2018-05-13T08:19:28.528Z,11.43
2018-05-13T08:21:56.290Z,10.17
2018-05-13T08:24:24.783Z,10.23
2018-05-13T08:26:52.666Z,10.67
2018-05-13T08:29:20.371Z,10.03
2018-05-13T08:31:48.058Z,10.47
2018-05-13T08:34:15.796Z,11.30
2018-05-13T08:36:43.485Z,10.00
2018-05-13T08:39:11.190Z,11.53
2018-05-13T08:41:38.856Z,9.80
2018-05-13T08:44:07.289Z,9.55
2018-05-13T08:46:35.010Z,10.57
2018-05-13T08:49:03.436Z,11.40
2018-05-13T08:51:31.154Z,10.13
2018-05-13T08:53:59.673Z,10.07
2018-05-13T08:56:28.097Z,8.90
2018-05-13T08:58:55.760Z,8.57
2018-05-13T09:01:23.468Z,8.10
2018-05-13T09:03:51.132Z,8.60
2018-05-13T09:06:18.857Z,9.00
2018-05-13T09:08:47.288Z,9.18
2018-05-13T09:11:14.999Z,8.68
2018-05-13T09:13:43.432Z,8.63
2018-05-13T09:16:11.134Z,7.82
2018-05-13T09:18:39.555Z,7.03
2018-05-13T09:21:07.276Z,8.05
2018-05-13T09:23:35.710Z,6.95
2018-05-13T09:26:03.408Z,8.38
2018-05-13T09:28:31.115Z,6.62
2018-05-13T09:30:58.775Z,7.20
2018-05-13T09:33:26.486Z,7.97
2018-05-13T09:35:54.164Z,6.40
2018-05-13T09:38:21.883Z,5.60
2018-05-13T09:40:49.536Z,6.85
2018-05-13T09:43:17.303Z,6.93
2018-05-13T09:45:44.979Z,5.93
2018-05-13T09:48:12.681Z,6.50
2018-05-13T09:50:41.522Z,5.95
2018-05-13T09:53:09.326Z,6.10
2018-05-13T09:55:37.104Z,5.55
2018-05-13T09:58:05.588Z,6.72
2018-05-13T10:00:34.064Z,5.97
2018-05-13T10:03:02.493Z,5.70
2018-05-13T10:05:30.982Z,6.18
2018-05-13T10:07:59.472Z,5.50
2018-05-13T10:10:27.175Z,5.53
2018-05-13T10:12:55.595Z,5.37
2018-05-13T10:15:23.308Z,5.45
2018-05-13T10:17:51.790Z,6.25
2018-05-13T10:20:20.289Z,5.78
2018-05-13T10:22:47.976Z,4.43
2018-05-13T10:25:15.683Z,4.80
2018-05-13T10:27:43.388Z,5.28
2018-05-13T10:30:11.065Z,4.72
2018-05-13T10:32:38.777Z,4.97
2018-05-13T10:35:06.441Z,4.82
2018-05-13T10:37:34.159Z,4.77
2018-05-13T10:40:01.816Z,4.43
2018-05-13T10:42:29.578Z,4.30
2018-05-13T10:44:57.220Z,4.83
2018-05-13T10:47:24.971Z,4.45
2018-05-13T10:49:53.447Z,4.50
2018-05-13T10:52:21.882Z,4.63
2018-05-13T10:54:49.577Z,3.93
2018-05-13T10:57:18.319Z,3.60
2018-05-13T10:59:46.052Z,3.97
2018-05-13T11:02:13.713Z,4.17
2018-05-13T11:04:41.560Z,3.97
2018-05-13T11:07:09.235Z,4.40
2018-05-13T11:09:37.704Z,3.30
2018-05-13T11:12:06.229Z,3.42
2018-05-13T11:14:33.899Z,3.30
2018-05-13T11:17:01.604Z,3.43
2018-05-13T11:19:29.264Z,3.23
2018-05-13T11:21:56.995Z,3.20
2018-05-13T11:24:24.712Z,3.47
2018-05-13T11:26:53.256Z,2.83
2018-05-13T11:29:20.948Z,3.43
2018-05-13T11:31:49.439Z,3.05
2018-05-13T11:34:17.142Z,2.93
2018-05-13T11:36:45.616Z,3.47
2018-05-13T11:39:13.415Z,3.40
2018-05-13T11:41:41.089Z,2.95
2018-05-13T11:44:09.582Z,2.93
2018-05-13T11:46:38.030Z,2.83
2018-05-13T11:49:05.793Z,3.33
2018-05-13T11:51:33.475Z,2.87
2018-05-13T11:54:01.948Z,2.73
2018-05-13T11:56:29.732Z,2.83
2018-05-13T11:58:57.419Z,2.53
2018-05-13T12:01:26.123Z,2.50
2018-05-13T12:03:53.831Z,2.62
2018-05-13T12:06:22.261Z,2.80
2018-05-13T12:08:49.980Z,2.93
2018-05-13T12:11:18.458Z,2.60
2018-05-13T12:13:46.888Z,2.40
2018-05-13T12:16:14.602Z,2.67
2018-05-13T12:18:43.038Z,2.33
2018-05-13T12:21:10.910Z,2.57
2018-05-13T12:23:39.394Z,2.45
2018-05-13T12:26:07.813Z,2.20
2018-05-13T12:28:36.287Z,2.83
2018-05-13T12:31:04.768Z,2.40
2018-05-13T12:33:33.214Z,2.40
2018-05-13T12:36:00.924Z,2.40
2018-05-13T12:38:29.503Z,2.77
2018-05-13T12:40:57.919Z,2.92
2018-05-13T12:43:26.826Z,3.17
2018-05-13T12:45:55.609Z,2.87
2018-05-13T12:48:23.270Z,3.00
2018-05-13T12:50:50.972Z,3.25
2018-05-13T12:53:19.406Z,3.30
2018-05-13T12:55:47.126Z,3.93
2018-05-13T12:58:15.579Z,3.10
2018-05-13T13:00:43.284Z,3.37
2018-05-13T13:03:11.028Z,3.33
2018-05-13T13:05:39.499Z,2.90
2018-05-13T13:08:07.173Z,3.08
2018-05-13T13:10:35.661Z,3.05
2018-05-13T13:13:04.143Z,3.50
2018-05-13T13:15:31.811Z,3.17
2018-05-13T13:17:59.527Z,3.17
2018-05-13T13:20:27.193Z,3.15
2018-05-13T13:22:56.091Z,2.85
2018-05-13T13:25:23.763Z,2.92
2018-05-13T13:27:52.228Z,3.00
2018-05-13T13:30:19.888Z,3.20
2018-05-13T13:32:48.383Z,3.03
2018-05-13T13:35:16.051Z,3.05
2018-05-13T13:37:44.532Z,3.22
2018-05-13T13:40:12.987Z,3.33
2018-05-13T13:42:40.684Z,3.00
2018-05-13T13:45:09.113Z,3.12
2018-05-13T13:47:37.580Z,2.90
2018-05-13T13:50:05.257Z,3.12
2018-05-13T13:52:32.963Z,3.42
2018-05-13T13:55:01.456Z,2.78
2018-05-13T13:57:29.872Z,2.75
2018-05-13T13:59:57.583Z,2.80
2018-05-13T14:02:27.255Z,3.60
2018-05-13T14:04:56.249Z,2.90
2018-05-13T14:07:23.924Z,3.30
2018-05-13T14:09:52.532Z,3.40
2018-05-13T14:12:20.972Z,2.87
2018-05-13T14:14:49.449Z,3.45
2018-05-13T14:17:17.105Z,3.37
2018-05-13T14:19:44.826Z,3.15
2018-05-13T14:22:13.263Z,3.10
2018-05-13T14:24:41.114Z,3.30
2018-05-13T14:27:08.783Z,3.45
2018-05-13T14:29:36.478Z,6.53
2018-05-13T14:32:04.476Z,3.37
2018-05-13T14:34:32.235Z,3.37
2018-05-13T14:36:59.945Z,2.80
2018-05-13T14:39:27.659Z,2.90
2018-05-13T14:41:57.471Z,2.75
2018-05-13T14:44:26.402Z,3.00
2018-05-13T14:46:54.813Z,3.90
2018-05-13T14:49:22.630Z,5.60
2018-05-13T14:51:50.332Z,7.80
2018-05-13T14:54:18.020Z,5.72
2018-05-13T14:56:46.519Z,7.53
2018-05-13T14:59:14.174Z,4.43
2018-05-13T15:01:42.650Z,3.15
2018-05-13T15:04:11.092Z,5.85
2018-05-13T15:06:38.799Z,3.70
2018-05-13T15:09:06.469Z,4.30
2018-05-13T15:11:34.270Z,4.50
2018-05-13T15:14:01.947Z,3.10
2018-05-13T15:16:29.702Z,3.47
2018-05-13T15:18:57.403Z,3.33
2018-05-13T15:21:27.184Z,3.22
2018-05-13T15:23:55.657Z,3.20
2018-05-13T15:26:23.358Z,2.75
2018-05-13T15:28:51.906Z,2.58
2018-05-13T15:31:19.575Z,3.42
2018-05-13T15:33:47.259Z,3.17
2018-05-13T15:36:15.772Z,3.10
2018-05-13T15:38:43.456Z,2.83
2018-05-13T15:41:11.158Z,2.45
2018-05-13T15:43:38.874Z,2.65
2018-05-13T15:46:06.663Z,2.97
2018-05-13T15:48:34.313Z,2.97
2018-05-13T15:51:02.021Z,2.80
2018-05-13T15:53:30.500Z,3.15
2018-05-13T15:55:58.936Z,3.92
2018-05-13T15:58:26.634Z,2.90
2018-05-13T16:00:56.199Z,3.30
2018-05-13T16:03:23.898Z,3.73
2018-05-13T16:05:51.619Z,2.92
2018-05-13T16:08:19.332Z,3.42
2018-05-13T16:10:47.805Z,2.60
2018-05-13T16:13:15.485Z,2.85
2018-05-13T16:15:43.961Z,2.97
2018-05-13T16:18:12.395Z,3.05
2018-05-13T16:20:40.118Z,3.20
2018-05-13T16:23:07.776Z,3.78
2018-05-13T16:25:35.505Z,2.92
2018-05-13T16:28:03.200Z,2.90
2018-05-13T16:30:31.656Z,3.60
2018-05-13T16:32:59.319Z,3.07
2018-05-13T16:35:27.037Z,2.92
2018-05-13T16:37:55.829Z,3.12
2018-05-13T16:40:23.530Z,3.17
2018-05-13T16:42:51.241Z,3.17
2018-05-13T16:45:18.947Z,3.35
2018-05-13T16:47:46.631Z,3.50
2018-05-13T16:50:15.115Z,3.10
2018-05-13T16:52:43.539Z,3.30
2018-05-13T16:55:11.251Z,2.80
2018-05-13T16:57:39.680Z,3.13
2018-05-13T17:00:07.381Z,2.97
2018-05-13T17:02:35.099Z,3.40
2018-05-13T17:05:02.812Z,3.30
2018-05-13T17:07:30.518Z,2.77
2018-05-13T17:09:58.296Z,2.80
2018-05-13T17:12:26.603Z,2.70
2018-05-13T17:14:54.765Z,3.37
2018-05-13T17:17:22.482Z,3.17
2018-05-13T17:19:50.201Z,3.20
2018-05-13T17:22:17.884Z,2.90
2018-05-13T17:24:46.351Z,2.60
2018-05-13T17:27:14.029Z,3.37
2018-05-13T17:29:43.289Z,3.23
2018-05-13T17:32:11.000Z,3.43
2018-05-13T17:34:39.434Z,2.63
2018-05-13T17:37:07.171Z,3.30
2018-05-13T17:39:34.862Z,2.67
2018-05-13T17:42:03.210Z,2.43
2018-05-13T17:44:31.853Z,2.70
2018-05-13T17:46:59.700Z,2.83
2018-05-13T17:49:27.456Z,2.43
2018-05-13T17:51:56.172Z,2.40
2018-05-13T17:54:23.852Z,2.23
2018-05-13T17:56:52.332Z,3.10
2018-05-13T17:59:19.988Z,2.70
2018-05-13T18:01:48.815Z,3.00
2018-05-13T18:04:16.477Z,2.60
2018-05-13T18:06:44.226Z,2.53
2018-05-13T18:09:11.941Z,2.27
2018-05-13T18:11:39.871Z,2.70
2018-05-13T18:14:07.585Z,2.73
2018-05-13T18:16:36.086Z,2.47
2018-05-13T18:19:04.940Z,2.80
2018-05-13T18:21:32.711Z,2.37
2018-05-13T18:24:00.790Z,2.70
2018-05-13T18:26:29.529Z,2.83
2018-05-13T18:28:57.261Z,2.37
2018-05-13T18:31:26.492Z,2.93
2018-05-13T18:33:54.149Z,3.27
2018-05-13T18:36:22.279Z,2.57
2018-05-13T18:38:50.751Z,3.40
2018-05-13T18:41:18.401Z,2.63
2018-05-13T18:43:46.138Z,2.40
2018-05-13T18:46:13.903Z,2.70
2018-05-13T18:48:41.557Z,2.90
2018-05-13T18:51:09.257Z,2.70
2018-05-13T18:53:37.011Z,3.23
2018-05-13T18:56:04.708Z,2.93
2018-05-13T18:58:33.128Z,2.53
2018-05-13T19:01:00.835Z,3.00
2018-05-13T19:03:29.943Z,2.40
2018-05-13T19:05:59.336Z,3.40
2018-05-13T19:08:28.893Z,3.80
2018-05-13T19:10:56.562Z,2.57
2018-05-13T19:13:24.216Z,3.30
2018-05-13T19:15:51.912Z,3.17
2018-05-13T19:18:19.978Z,3.13
2018-05-13T19:20:47.636Z,3.00
2018-05-13T19:23:15.321Z,2.50
2018-05-13T19:25:43.786Z,3.30
2018-05-13T19:28:11.450Z,2.53
2018-05-13T19:30:39.147Z,2.73
2018-05-13T19:33:06.851Z,2.90
2018-05-13T19:35:35.316Z,3.13
2018-05-13T19:38:02.977Z,3.13
2018-05-13T19:40:30.704Z,3.13
2018-05-13T19:42:59.188Z,3.43
2018-05-13T19:45:26.939Z,5.17
2018-05-13T19:47:55.406Z,3.27
2018-05-13T19:50:23.128Z,3.07
2018-05-13T19:52:50.819Z,2.70
2018-05-13T19:55:18.650Z,3.47
2018-05-13T19:57:47.149Z,3.30
2018-05-13T20:00:14.862Z,3.40
2018-05-13T20:02:43.951Z,3.40
2018-05-13T20:05:11.574Z,3.20
2018-05-13T20:07:39.787Z,3.47
2018-05-13T20:10:08.844Z,3.40
2018-05-13T20:12:37.200Z,2.73
2018-05-13T20:15:04.878Z,3.63
2018-05-13T20:17:33.417Z,3.50
2018-05-13T20:20:01.112Z,3.30
2018-05-13T20:22:29.507Z,3.30
2018-05-13T20:24:57.213Z,3.17
2018-05-13T20:27:25.635Z,3.53
2018-05-13T20:29:54.520Z,4.03
2018-05-13T20:32:22.294Z,3.17
2018-05-13T20:34:50.010Z,3.67
2018-05-13T20:37:18.439Z,3.33
2018-05-13T20:39:46.104Z,3.40
2018-05-13T20:42:13.803Z,4.07
2018-05-13T20:44:42.364Z,3.70
2018-05-13T20:47:10.019Z,3.07
2018-05-13T20:49:38.084Z,3.03
2018-05-13T20:52:06.296Z,3.40
2018-05-13T20:54:34.765Z,3.33
2018-05-13T20:57:02.660Z,4.03
2018-05-13T20:59:31.139Z,3.30
2018-05-13T21:02:01.437Z,3.60
2018-05-13T21:04:30.597Z,3.73
2018-05-13T21:06:58.657Z,3.83
2018-05-13T21:09:26.467Z,3.20
2018-05-13T21:11:54.215Z,3.60
2018-05-13T21:14:21.922Z,3.23
2018-05-13T21:16:49.688Z,3.83
2018-05-13T21:19:18.163Z,3.80
2018-05-13T21:21:46.595Z,3.27
2018-05-13T21:24:14.304Z,4.27
2018-05-13T21:26:42.720Z,3.40
2018-05-13T21:29:10.557Z,3.30
2018-05-13T21:31:39.288Z,3.57
2018-05-13T21:34:07.047Z,3.40
2018-05-13T21:36:34.780Z,3.57
2018-05-13T21:39:02.466Z,3.63
2018-05-13T21:41:30.835Z,3.90
2018-05-13T21:43:59.036Z,3.43
2018-05-13T21:46:26.772Z,3.20
2018-05-13T21:48:54.430Z,3.67
2018-05-13T21:51:22.148Z,4.20
2018-05-13T21:53:50.584Z,3.70
2018-05-13T21:56:18.245Z,3.77
2018-05-13T21:58:46.024Z,3.80
2018-05-13T22:01:13.776Z,3.70
2018-05-13T22:03:41.692Z,4.07
2018-05-13T22:06:10.116Z,3.87
2018-05-13T22:08:38.100Z,3.60
2018-05-13T22:11:05.912Z,4.43
2018-05-13T22:13:34.380Z,3.47
2018-05-13T22:16:02.048Z,3.77
2018-05-13T22:18:31.924Z,4.23
2018-05-13T22:21:00.989Z,4.20
2018-05-13T22:23:28.719Z,4.10
2018-05-13T22:25:57.295Z,3.73
2018-05-13T22:28:25.035Z,4.50
2018-05-13T22:30:52.700Z,3.57
2018-05-13T22:33:20.346Z,3.70
2018-05-13T22:35:48.047Z,3.50
2018-05-13T22:38:15.703Z,3.70
2018-05-13T22:40:43.395Z,3.97
2018-05-13T22:43:11.063Z,3.20
2018-05-13T22:45:38.755Z,4.00
2018-05-13T22:48:06.458Z,3.80
2018-05-13T22:50:34.942Z,3.53
2018-05-13T22:53:03.407Z,3.67
2018-05-13T22:55:31.648Z,4.17
2018-05-13T22:58:00.485Z,3.80
2018-05-13T23:00:29.545Z,3.83
2018-05-13T23:02:57.255Z,4.03
2018-05-13T23:05:25.747Z,3.50
2018-05-13T23:07:53.860Z,4.13
2018-05-13T23:10:22.333Z,3.40
2018-05-13T23:15:24.435Z,3.63
2018-05-13T23:17:52.941Z,3.77
2018-05-13T23:20:20.730Z,3.70
2018-05-13T23:22:49.127Z,3.83
2018-05-13T23:25:16.899Z,3.33
2018-05-13T23:27:44.612Z,4.27
2018-05-13T23:30:13.036Z,4.57
2018-05-13T23:32:40.755Z,3.70
2018-05-13T23:35:09.220Z,4.13
2018-05-13T23:37:36.891Z,4.47
2018-05-13T23:40:04.591Z,4.00
2018-05-13T23:42:32.524Z,3.70
2018-05-13T23:45:02.078Z,4.10
2018-05-13T23:47:30.823Z,3.87
2018-05-13T23:49:59.813Z,4.23
2018-05-13T23:52:28.417Z,4.20
2018-05-13T23:54:56.071Z,4.43
2018-05-13T23:57:23.777Z,3.77
2018-05-13T23:59:51.435Z,3.47
